Airport Information

KYKM - Yakima Air Terminal McAllister Field Airport

KYKM 241253Z 27007KT 10SM CLR 12/07 A3019 RMK AO2 SLP218 T01170072


  • General Information

  • Coordinates: N 46°34'5"/ W 120°32'38"
  • Location: N/A
  • Surveyed Elevation: 1095 MSL

Operations

Flow Name Active Runways Conditions

Green background denotes normal operations.


Common Frequencies

Callsign Frequency Position Name

More at the Document Center


Charts